Time;durP1;ratioP1;P1;durP2;ratioP2;P2;SDS_P1;SDS_P2;PMS_P1;PMS_P2;Temp;Humidity;BMP_temperature;BMP_pressure;BME280_temperature;BME280_humidity;BME280_pressure;Samples;Min_cycle;Max_cycle;Signal;HPM_P1;HPM_P2
2023/03/07 00:01:27;;;;;;;;;;;;;;;6.90;100.00;98531.22;5038121;28;19987;-75
2023/03/07 00:03:53;;;;;;;;;;;;;;;6.82;100.00;98533.75;5037807;28;19962;-75
2023/03/07 00:06:18;;;;;;;;;;;;;;;6.83;100.00;98529.31;5042069;28;20036;-74
2023/03/07 00:08:44;;;;;;;;;;;;;;;6.82;100.00;98531.13;5028673;28;20015;-75
2023/03/07 00:11:09;;;;;;;;;;;;;;;6.76;100.00;98529.06;5040019;28;19925;-74
2023/03/07 00:13:36;;;;;;;;;;;;;;;6.75;100.00;98527.41;5039469;28;19921;-75
2023/03/07 00:16:05;;;;;;;;;;;;;;;6.80;100.00;98527.81;5036627;28;20009;-75
2023/03/07 00:18:31;;;;;;;;;;;;;;;6.85;100.00;98522.94;5044693;28;20327;-74
2023/03/07 00:21:01;;;;;;;;;;;;;;;6.80;100.00;98522.56;5041368;28;19917;-75
2023/03/07 00:23:27;;;;;;;;;;;;;;;6.81;100.00;98526.84;5035537;28;19929;-74
2023/03/07 00:25:57;;;;;;;;;;;;;;;6.86;100.00;98523.78;5038194;28;19971;-75
2023/03/07 00:28:22;;;;;;;;;;;;;;;6.81;100.00;98520.78;5040684;28;19925;-75
2023/03/07 00:30:47;;;;;;;;;;;;;;;6.71;100.00;98523.44;5043505;28;19920;-75
2023/03/07 00:33:13;;;;;;;;;;;;;;;6.65;100.00;98525.81;5037406;28;19964;-75
2023/03/07 00:35:38;;;;;;;;;;;;;;;6.56;100.00;98537.97;5039780;28;19921;-74
2023/03/07 00:38:04;;;;;;;;;;;;;;;6.56;100.00;98532.72;5037665;28;20016;-75
2023/03/07 00:40:29;;;;;;;;;;;;;;;6.36;100.00;98536.38;5019473;28;19986;-75
2023/03/07 00:42:54;;;;;;;;;;;;;;;6.35;100.00;98537.31;5035058;28;19928;-74
2023/03/07 00:45:20;;;;;;;;;;;;;;;6.20;100.00;98536.09;5035583;28;20296;-74
2023/03/07 00:47:46;;;;;;;;;;;;;;;5.98;100.00;98532.81;5033832;28;19921;-73
2023/03/07 00:50:11;;;;;;;;;;;;;;;5.95;100.00;98543.53;5041166;28;20391;-73
2023/03/07 00:52:37;;;;;;;;;;;;;;;5.90;100.00;98530.06;5037248;28;19967;-73
2023/03/07 00:55:03;;;;;;;;;;;;;;;5.91;100.00;98526.47;5022912;28;20377;-74
2023/03/07 00:57:28;;;;;;;;;;;;;;;5.74;100.00;98520.09;5036389;28;19929;-73
2023/03/07 00:59:54;;;;;;;;;;;;;;;5.66;100.00;98526.97;5033495;28;19956;-73
2023/03/07 01:02:19;;;;;;;;;;;;;;;5.64;100.00;98518.47;5028214;28;19924;-73
2023/03/07 01:04:45;;;;;;;;;;;;;;;5.72;100.00;98510.72;5035284;28;20334;-72
2023/03/07 01:07:10;;;;;;;;;;;;;;;5.73;100.00;98512.38;5043753;28;19937;-74
2023/03/07 01:09:35;;;;;;;;;;;;;;;5.77;100.00;98508.53;5020405;28;19928;-73
2023/03/07 01:12:01;;;;;;;;;;;;;;;5.64;100.00;98505.38;5038196;28;19978;-74
2023/03/07 01:14:27;;;;;;;;;;;;;;;5.63;100.00;98512.38;5023829;28;19943;-74
2023/03/07 01:16:53;;;;;;;;;;;;;;;5.60;100.00;98502.19;5027994;28;19921;-75
2023/03/07 01:19:19;;;;;;;;;;;;;;;5.59;100.00;98513.63;5025608;28;19974;-74
2023/03/07 01:21:44;;;;;;;;;;;;;;;5.52;100.00;98506.47;5027860;28;19921;-74
2023/03/07 01:24:12;;;;;;;;;;;;;;;5.61;100.00;98508.25;5034249;28;20171;-74
2023/03/07 01:26:37;;;;;;;;;;;;;;;5.62;100.00;98504.66;5039048;28;20313;-74
2023/03/07 01:29:04;;;;;;;;;;;;;;;5.59;100.00;98502.34;5023242;28;20002;-74
2023/03/07 01:31:33;;;;;;;;;;;;;;;5.53;100.00;98508.13;5025165;28;19936;-74
2023/03/07 01:34:01;;;;;;;;;;;;;;;5.56;100.00;98499.97;5032675;28;19921;-74
2023/03/07 01:36:29;;;;;;;;;;;;;;;5.54;100.00;98507.13;5023591;28;20358;-74
2023/03/07 01:39:01;;;;;;;;;;;;;;;5.64;100.00;98497.53;5025873;28;19975;-74
2023/03/07 01:41:30;;;;;;;;;;;;;;;5.66;100.00;98500.81;5041993;28;19933;-75
2023/03/07 01:44:01;;;;;;;;;;;;;;;5.58;100.00;98498.06;5032002;28;19931;-74
2023/03/07 01:46:31;;;;;;;;;;;;;;;5.50;100.00;98496.13;5018187;28;20028;-73
2023/03/07 01:49:04;;;;;;;;;;;;;;;5.48;100.00;98492.81;5028683;28;19921;-73
2023/03/07 01:51:31;;;;;;;;;;;;;;;5.50;100.00;98490.06;5030683;28;19975;-74
2023/03/07 01:54:00;;;;;;;;;;;;;;;5.38;100.00;98488.53;5037018;28;19921;-74
2023/03/07 01:56:26;;;;;;;;;;;;;;;5.28;100.00;98486.75;5022414;28;20381;-73
2023/03/07 01:58:53;;;;;;;;;;;;;;;5.23;100.00;98488.94;5034637;28;19916;-74
2023/03/07 02:01:18;;;;;;;;;;;;;;;5.20;100.00;98483.97;5036452;28;19932;-74
2023/03/07 02:03:59;;;;;;;;;;;;;;;5.21;100.00;98490.84;5025744;28;20024;-73
2023/03/07 02:06:26;;;;;;;;;;;;;;;5.21;100.00;98490.84;5039855;28;19925;-74
2023/03/07 02:08:53;;;;;;;;;;;;;;;5.20;100.00;98489.19;5036122;28;19921;-75
2023/03/07 02:11:19;;;;;;;;;;;;;;;5.10;100.00;98488.34;5040351;28;19925;-74
2023/03/07 02:13:44;;;;;;;;;;;;;;;5.00;100.00;98484.91;5037398;28;20016;-74
2023/03/07 02:16:10;;;;;;;;;;;;;;;4.95;100.00;98481.84;5034634;28;19925;-74
2023/03/07 02:18:39;;;;;;;;;;;;;;;4.90;100.00;98481.41;5033383;28;19921;-73
2023/03/07 02:21:23;;;;;;;;;;;;;;;4.78;100.00;98466.78;5034063;28;19955;-75
2023/03/07 02:24:04;;;;;;;;;;;;;;;4.90;100.00;98470.97;5038430;28;20015;-74
2023/03/07 02:26:29;;;;;;;;;;;;;;;4.96;100.00;98465.19;5041061;28;19925;-74
2023/03/07 02:28:55;;;;;;;;;;;;;;;4.85;100.00;98467.91;5039059;28;19967;-74
2023/03/07 02:31:21;;;;;;;;;;;;;;;4.81;100.00;98459.53;5019545;28;19928;-75
2023/03/07 02:33:48;;;;;;;;;;;;;;;4.88;100.00;98460.66;5034378;28;19921;-74
2023/03/07 02:36:25;;;;;;;;;;;;;;;4.85;100.00;98457.47;5023581;28;19921;-75
2023/03/07 02:39:21;;;;;;;;;;;;;;;4.65;100.00;98461.00;5017559;28;19970;-75
2023/03/07 02:41:52;;;;;;;;;;;;;;;4.47;100.00;98472.06;5034205;28;19921;-75
2023/03/07 02:44:25;;;;;;;;;;;;;;;4.27;100.00;98470.31;5031427;28;20430;-75
2023/03/07 02:46:50;;;;;;;;;;;;;;;4.24;100.00;98467.13;5033584;28;20027;-75
2023/03/07 02:49:17;;;;;;;;;;;;;;;4.12;100.00;98461.97;5025578;28;19921;-74
2023/03/07 02:51:42;;;;;;;;;;;;;;;4.09;100.00;98458.78;5035382;28;20064;-74
2023/03/07 02:54:08;;;;;;;;;;;;;;;4.17;100.00;98460.75;5029785;28;19948;-74
2023/03/07 02:56:34;;;;;;;;;;;;;;;4.09;100.00;98457.00;5017783;28;20324;-73
2023/03/07 02:59:00;;;;;;;;;;;;;;;4.07;100.00;98460.69;5037679;28;19932;-74
2023/03/07 03:01:25;;;;;;;;;;;;;;;4.11;100.00;98462.94;5036371;28;19979;-73
2023/03/07 03:03:51;;;;;;;;;;;;;;;4.13;100.00;98470.63;5037322;28;20027;-74
2023/03/07 03:06:16;;;;;;;;;;;;;;;4.17;100.00;98460.75;5032622;28;19925;-73
2023/03/07 03:08:42;;;;;;;;;;;;;;;4.18;100.00;98465.88;5022155;28;19994;-74
2023/03/07 03:11:07;;;;;;;;;;;;;;;4.09;100.00;98474.44;5031735;28;19921;-75
2023/03/07 03:13:34;;;;;;;;;;;;;;;4.20;100.00;98465.72;5036875;28;19929;-74
2023/03/07 03:15:59;;;;;;;;;;;;;;;4.03;100.00;98474.97;5033729;28;19929;-75
2023/03/07 03:18:29;;;;;;;;;;;;;;;3.83;100.00;98479.22;5019427;28;19921;-73
2023/03/07 03:20:54;;;;;;;;;;;;;;;3.76;100.00;98475.47;5037855;28;19921;-74
2023/03/07 03:23:19;;;;;;;;;;;;;;;3.62;100.00;98471.38;5031046;28;19947;-74
2023/03/07 03:25:55;;;;;;;;;;;;;;;3.72;100.00;98467.06;5037986;28;20400;-75
2023/03/07 03:28:21;;;;;;;;;;;;;;;3.89;100.00;98473.50;5030674;28;19925;-74
2023/03/07 03:30:55;;;;;;;;;;;;;;;3.89;100.00;98459.66;5021796;28;20008;-75
2023/03/07 03:33:20;;;;;;;;;;;;;;;3.95;100.00;98459.94;5037025;28;20388;-75
2023/03/07 03:35:46;;;;;;;;;;;;;;;3.90;100.00;98456.88;5038141;28;19960;-75
2023/03/07 03:38:12;;;;;;;;;;;;;;;4.04;100.00;98450.53;5025590;28;19928;-75
2023/03/07 03:40:37;;;;;;;;;;;;;;;4.03;100.00;98446.25;5042003;28;19928;-75
2023/03/07 03:43:03;;;;;;;;;;;;;;;4.01;100.00;98445.53;5027535;28;19951;-75
2023/03/07 03:45:29;;;;;;;;;;;;;;;4.10;100.00;98450.00;5038493;28;19970;-74
2023/03/07 03:47:54;;;;;;;;;;;;;;;4.15;100.00;98453.06;5039547;28;19944;-75
2023/03/07 03:50:20;;;;;;;;;;;;;;;4.16;100.00;98452.09;5019186;28;19940;-75
2023/03/07 03:52:45;;;;;;;;;;;;;;;4.00;100.00;98449.13;5040452;28;19992;-75
2023/03/07 03:55:11;;;;;;;;;;;;;;;3.77;100.00;98458.06;5026008;28;19980;-75
2023/03/07 03:57:37;;;;;;;;;;;;;;;3.87;100.00;98458.94;5024920;28;19921;-75
2023/03/07 04:00:04;;;;;;;;;;;;;;;3.94;100.00;98457.47;5024043;28;19925;-75
2023/03/07 04:02:37;;;;;;;;;;;;;;;3.98;100.00;98464.91;5036326;28;19921;-74
2023/03/07 04:05:04;;;;;;;;;;;;;;;4.00;100.00;98467.41;5011987;28;19921;-75
2023/03/07 04:07:29;;;;;;;;;;;;;;;3.84;100.00;98459.16;5038954;28;19921;-74
2023/03/07 04:09:55;;;;;;;;;;;;;;;3.91;100.00;98466.38;5034122;28;19968;-74
2023/03/07 04:12:20;;;;;;;;;;;;;;;3.97;100.00;98457.19;5039551;28;19921;-74
2023/03/07 04:14:46;;;;;;;;;;;;;;;4.04;100.00;98460.97;5022251;28;20008;-75
2023/03/07 04:17:11;;;;;;;;;;;;;;;4.07;100.00;98458.09;5035550;28;19929;-75
2023/03/07 04:19:37;;;;;;;;;;;;;;;4.11;100.00;98459.50;5026453;28;19921;-74
2023/03/07 04:22:04;;;;;;;;;;;;;;;4.12;100.00;98461.97;5029121;28;19925;-74
2023/03/07 04:24:29;;;;;;;;;;;;;;;4.04;100.00;98455.75;5035752;28;19978;-74
2023/03/07 04:26:55;;;;;;;;;;;;;;;4.15;100.00;98458.28;5038459;28;19921;-74
2023/03/07 04:29:21;;;;;;;;;;;;;;;4.19;100.00;98459.66;5023908;28;19928;-74
2023/03/07 04:31:53;;;;;;;;;;;;;;;4.17;100.00;98464.22;5030391;28;19928;-74
2023/03/07 04:34:18;;;;;;;;;;;;;;;4.20;100.00;98471.75;5036357;28;19921;-75
2023/03/07 04:36:44;;;;;;;;;;;;;;;4.19;100.00;98467.50;5027574;28;19956;-75
2023/03/07 04:39:11;;;;;;;;;;;;;;;3.93;100.00;98474.09;5041175;28;20368;-75
2023/03/07 04:41:36;;;;;;;;;;;;;;;3.80;100.00;98473.44;5031752;28;19928;-75
2023/03/07 04:44:10;;;;;;;;;;;;;;;3.76;100.00;98474.66;5025149;28;19924;-74
2023/03/07 04:46:36;;;;;;;;;;;;;;;3.79;100.00;98471.78;5029602;28;20270;-74
2023/03/07 04:49:01;;;;;;;;;;;;;;;3.88;100.00;98471.03;5025936;28;19921;-75
2023/03/07 04:51:28;;;;;;;;;;;;;;;3.96;100.00;98474.66;5035575;28;19947;-75
2023/03/07 04:53:54;;;;;;;;;;;;;;;4.03;100.00;98469.75;5036107;28;20408;-75
2023/03/07 04:56:19;;;;;;;;;;;;;;;4.04;100.00;98477.47;5035100;28;20011;-75
2023/03/07 04:58:46;;;;;;;;;;;;;;;4.03;100.00;98480.19;5027277;28;19959;-75
2023/03/07 05:01:11;;;;;;;;;;;;;;;4.06;100.00;98474.72;5022320;28;19972;-75
2023/03/07 05:03:37;;;;;;;;;;;;;;;4.07;100.00;98469.34;5028446;28;19929;-75
2023/03/07 05:06:05;;;;;;;;;;;;;;;4.06;100.00;98472.13;5015318;28;19979;-76
2023/03/07 05:08:30;;;;;;;;;;;;;;;4.04;100.00;98472.25;5014947;28;19929;-76
2023/03/07 05:10:56;;;;;;;;;;;;;;;4.16;100.00;98470.38;5023015;28;19935;-77
2023/03/07 05:13:22;;;;;;;;;;;;;;;4.10;100.00;98478.72;5042833;28;20808;-77
2023/03/07 05:15:51;;;;;;;;;;;;;;;3.95;100.00;98483.44;5025921;28;19921;-76
2023/03/07 05:18:17;;;;;;;;;;;;;;;3.93;100.00;98489.75;5024751;28;19920;-76
2023/03/07 05:20:43;;;;;;;;;;;;;;;3.99;100.00;98487.47;5035263;28;20016;-75
2023/03/07 05:23:08;;;;;;;;;;;;;;;3.99;100.00;98489.25;5020074;28;19928;-75
2023/03/07 05:25:34;;;;;;;;;;;;;;;4.04;100.00;98494.91;5036126;28;20472;-75
2023/03/07 05:27:59;;;;;;;;;;;;;;;4.13;100.00;98491.50;5020498;28;20376;-74
2023/03/07 05:30:25;;;;;;;;;;;;;;;4.13;100.00;98486.28;5019681;28;20021;-75
2023/03/07 05:32:50;;;;;;;;;;;;;;;4.23;100.00;98476.75;5033144;28;19925;-74
2023/03/07 05:35:16;;;;;;;;;;;;;;;4.29;100.00;98489.28;5037700;28;19917;-75
2023/03/07 05:37:43;;;;;;;;;;;;;;;4.33;100.00;98482.84;5029610;28;20309;-74
2023/03/07 05:40:09;;;;;;;;;;;;;;;4.41;100.00;98484.81;5017068;28;19921;-75
2023/03/07 05:42:38;;;;;;;;;;;;;;;4.37;100.00;98484.22;5033021;28;20408;-75
2023/03/07 05:45:04;;;;;;;;;;;;;;;4.32;100.00;98490.78;5035503;28;19929;-75
2023/03/07 05:47:30;;;;;;;;;;;;;;;4.31;100.00;98492.56;5027830;28;19925;-75
2023/03/07 05:49:56;;;;;;;;;;;;;;;4.30;100.00;98488.31;5031132;28;19948;-75
2023/03/07 05:52:22;;;;;;;;;;;;;;;4.30;100.00;98488.31;5026472;28;20291;-75
2023/03/07 05:54:47;;;;;;;;;;;;;;;4.29;100.00;98491.91;5020237;28;19927;-76
2023/03/07 05:57:13;;;;;;;;;;;;;;;4.28;100.00;98492.84;5015702;28;19983;-75
2023/03/07 05:59:39;;;;;;;;;;;;;;;4.26;100.00;98486.91;5034906;28;20420;-75
2023/03/07 06:02:05;;;;;;;;;;;;;;;4.29;100.00;98489.28;5030105;28;19921;-75
2023/03/07 06:04:30;;;;;;;;;;;;;;;4.37;100.00;98496.47;5017792;28;20019;-74
2023/03/07 06:06:56;;;;;;;;;;;;;;;4.29;100.00;98501.50;5039601;28;19963;-73
2023/03/07 06:09:24;;;;;;;;;;;;;;;4.45;100.00;98494.88;5028345;28;20435;-73
2023/03/07 06:11:49;;;;;;;;;;;;;;;4.47;100.00;98495.56;5027268;28;19951;-72
2023/03/07 06:14:15;;;;;;;;;;;;;;;4.35;100.00;98499.22;5037696;28;19925;-72
2023/03/07 06:16:40;;;;;;;;;;;;;;;4.38;100.00;98493.72;5034191;28;19922;-72
2023/03/07 06:19:06;;;;;;;;;;;;;;;4.39;100.00;98500.59;5030835;28;20019;-72
2023/03/07 06:21:32;;;;;;;;;;;;;;;4.30;100.00;98497.94;5022626;28;19920;-71
2023/03/07 06:23:57;;;;;;;;;;;;;;;4.20;100.00;98505.72;5039569;28;19974;-71
2023/03/07 06:26:22;;;;;;;;;;;;;;;4.09;100.00;98505.78;5027234;28;19971;-74
2023/03/07 06:28:51;;;;;;;;;;;;;;;4.14;100.00;98503.59;5039286;28;20015;-76
2023/03/07 06:31:17;;;;;;;;;;;;;;;4.11;100.00;98509.09;5020290;28;20092;-76
2023/03/07 06:33:43;;;;;;;;;;;;;;;4.12;100.00;98513.38;5019192;28;19940;-75
2023/03/07 06:36:10;;;;;;;;;;;;;;;4.20;100.00;98518.75;5028223;28;20429;-74
2023/03/07 06:38:38;;;;;;;;;;;;;;;4.23;100.00;98518.53;5024637;28;19921;-75
2023/03/07 06:41:04;;;;;;;;;;;;;;;4.24;100.00;98517.53;5031467;28;19928;-75
2023/03/07 06:43:30;;;;;;;;;;;;;;;4.24;100.00;98509.72;5021812;28;20304;-75
2023/03/07 06:45:56;;;;;;;;;;;;;;;4.35;100.00;98507.06;5024173;28;19928;-74
2023/03/07 06:48:24;;;;;;;;;;;;;;;4.29;100.00;98512.78;5026471;28;19927;-76
2023/03/07 06:50:51;;;;;;;;;;;;;;;4.31;100.00;98515.25;5031232;28;20003;-76
2023/03/07 06:53:17;;;;;;;;;;;;;;;4.44;100.00;98519.31;5033961;28;20374;-74
2023/03/07 06:55:46;;;;;;;;;;;;;;;4.46;100.00;98525.25;5036429;28;19979;-76
2023/03/07 06:58:12;;;;;;;;;;;;;;;4.43;100.00;98535.94;5036703;28;19929;-77
2023/03/07 07:00:37;;;;;;;;;;;;;;;4.52;100.00;98529.97;5022482;28;19943;-76
2023/03/07 07:03:03;;;;;;;;;;;;;;;4.44;100.00;98528.94;5011792;28;19929;-77
2023/03/07 07:05:29;;;;;;;;;;;;;;;4.31;100.00;98525.69;5030448;28;19967;-77
2023/03/07 07:07:54;;;;;;;;;;;;;;;4.34;100.00;98521.06;5039270;28;19921;-77
2023/03/07 07:10:20;;;;;;;;;;;;;;;4.41;100.00;98532.66;5044302;28;19929;-80
2023/03/07 07:12:45;;;;;;;;;;;;;;;4.45;100.00;98534.03;5033104;28;19921;-81
2023/03/07 07:15:11;;;;;;;;;;;;;;;4.42;100.00;98542.13;5034084;28;19939;-80
2023/03/07 07:17:40;;;;;;;;;;;;;;;4.52;100.00;98550.88;5039795;28;19928;-81
2023/03/07 07:20:06;;;;;;;;;;;;;;;4.49;100.00;98556.34;5030790;28;19952;-81
2023/03/07 07:22:33;;;;;;;;;;;;;;;4.57;100.00;98547.03;5021074;28;20357;-80
2023/03/07 07:24:58;;;;;;;;;;;;;;;4.53;100.00;98547.31;5038354;28;19988;-80
2023/03/07 07:27:24;;;;;;;;;;;;;;;4.46;100.00;98551.38;5023956;28;19917;-80
2023/03/07 07:29:51;;;;;;;;;;;;;;;4.44;100.00;98558.50;5042187;28;19925;-82
2023/03/07 07:32:16;;;;;;;;;;;;;;;4.53;100.00;98562.97;5044047;28;19944;-82
2023/03/07 07:34:43;;;;;;;;;;;;;;;4.62;100.00;98563.13;5029682;28;19928;-82
2023/03/07 07:37:08;;;;;;;;;;;;;;;4.77;100.00;98561.84;5019185;28;19921;-80
2023/03/07 07:39:34;;;;;;;;;;;;;;;4.89;100.00;98559.00;5025431;28;19966;-80
2023/03/07 07:41:59;;;;;;;;;;;;;;;4.96;100.00;98567.16;5021336;28;20040;-80
2023/03/07 07:44:29;;;;;;;;;;;;;;;5.10;100.00;98563.34;5028046;28;19932;-80
2023/03/07 07:46:57;;;;;;;;;;;;;;;5.25;100.00;98560.22;5042940;28;20347;-80
2023/03/07 07:49:23;;;;;;;;;;;;;;;5.44;100.00;98563.84;5046392;28;19925;-81
2023/03/07 07:51:49;;;;;;;;;;;;;;;5.59;100.00;98568.59;5026727;28;20262;-80
2023/03/07 07:54:14;;;;;;;;;;;;;;;5.78;100.00;98563.34;5044666;28;19925;-81
2023/03/07 07:56:40;;;;;;;;;;;;;;;6.00;100.00;98564.94;5036566;28;19925;-80
2023/03/07 07:59:05;;;;;;;;;;;;;;;6.16;100.00;98567.81;5049820;28;19931;-79
2023/03/07 08:01:31;;;;;;;;;;;;;;;6.28;100.00;98559.81;5052701;28;19944;-80
2023/03/07 08:03:57;;;;;;;;;;;;;;;6.40;100.00;98562.13;5058434;28;19921;-78
2023/03/07 08:06:23;;;;;;;;;;;;;;;6.48;100.00;98567.47;5062619;28;19921;-81
2023/03/07 08:08:49;;;;;;;;;;;;;;;6.62;100.00;98574.09;5065209;28;20262;-80
2023/03/07 08:11:15;;;;;;;;;;;;;;;6.70;100.00;98566.34;5046430;28;19936;-80
2023/03/07 08:13:41;;;;;;;;;;;;;;;6.73;100.00;98570.47;5067592;28;19921;-80
2023/03/07 08:16:07;;;;;;;;;;;;;;;6.76;100.00;98565.78;5040668;28;19921;-81
2023/03/07 08:18:33;;;;;;;;;;;;;;;6.83;100.00;98566.84;5051448;28;19921;-80
2023/03/07 08:20:58;;;;;;;;;;;;;;;6.73;100.00;98570.47;5048024;28;19932;-82
2023/03/07 08:23:24;;;;;;;;;;;;;;;6.60;100.00;98576.00;5034924;28;19974;-79
2023/03/07 08:25:50;;;;;;;;;;;;;;;6.62;100.00;98574.09;5059055;28;19920;-83
2023/03/07 08:28:15;;;;;;;;;;;;;;;6.83;100.00;98566.84;5057343;28;19976;-82
2023/03/07 08:30:41;;;;;;;;;;;;;;;6.96;100.00;98571.75;5040150;28;19936;-83
2023/03/07 08:33:06;;;;;;;;;;;;;;;7.10;100.00;98575.72;5057614;28;19928;-83
2023/03/07 08:35:32;;;;;;;;;;;;;;;7.17;100.00;98580.25;5057484;28;19921;-83
2023/03/07 08:38:00;;;;;;;;;;;;;;;7.32;100.00;98578.78;5042027;28;19920;-82
2023/03/07 08:40:29;;;;;;;;;;;;;;;7.55;100.00;98573.97;5057577;28;19925;-82
2023/03/07 08:42:55;;;;;;;;;;;;;;;7.70;100.00;98579.56;5051338;28;20556;-82
2023/03/07 08:45:21;;;;;;;;;;;;;;;7.79;100.00;98582.09;5042011;28;19970;-82
2023/03/07 08:47:47;;;;;;;;;;;;;;;7.91;100.00;98579.25;5042588;28;20350;-83
2023/03/07 08:50:12;;;;;;;;;;;;;;;8.06;100.00;98573.34;5040967;28;19929;-82
2023/03/07 08:52:38;;;;;;;;;;;;;;;8.22;100.00;98577.91;5042149;28;19967;-83
2023/03/07 08:55:03;;;;;;;;;;;;;;;8.35;100.00;98569.66;5047674;28;19921;-83
2023/03/07 08:57:29;;;;;;;;;;;;;;;8.46;100.00;98570.25;5039932;28;19964;-82
2023/03/07 08:59:54;;;;;;;;;;;;;;;8.49;100.00;98569.94;5037714;28;19956;-82
2023/03/07 09:02:20;;;;;;;;;;;;;;;8.55;100.00;98569.31;5036003;28;19925;-82
2023/03/07 09:04:46;;;;;;;;;;;;;;;8.74;100.00;98578.81;5040382;28;20004;-82
2023/03/07 09:07:11;;;;;;;;;;;;;;;8.90;100.00;98564.91;5033145;28;19920;-82
2023/03/07 09:09:37;;;;;;;;;;;;;;;8.98;100.00;98568.44;5041677;28;20393;-82
2023/03/07 09:12:02;;;;;;;;;;;;;;;9.08;100.00;98552.53;5011488;28;19924;-82
2023/03/07 09:14:28;;;;;;;;;;;;;;;9.10;100.00;98553.19;5042610;28;19925;-82
2023/03/07 09:16:53;;;;;;;;;;;;;;;9.17;100.00;98554.22;5042928;28;19927;-82
2023/03/07 09:19:19;;;;;;;;;;;;;;;9.16;100.00;98563.09;5046294;28;19921;-83
2023/03/07 09:21:44;;;;;;;;;;;;;;;9.21;100.00;98563.44;5044535;28;19921;-83
2023/03/07 09:24:09;;;;;;;;;;;;;;;9.30;100.00;98567.78;5055171;28;19925;-82
2023/03/07 09:26:35;;;;;;;;;;;;;;;9.28;100.00;98566.28;5046011;28;19928;-80
2023/03/07 09:29:00;;;;;;;;;;;;;;;9.42;100.00;98569.09;5061027;28;19925;-82
2023/03/07 09:31:26;;;;;;;;;;;;;;;9.45;100.00;98563.53;5036630;28;19924;-82
2023/03/07 09:33:52;;;;;;;;;;;;;;;9.40;100.00;98557.94;5063066;28;19921;-82
2023/03/07 09:36:18;;;;;;;;;;;;;;;9.45;100.00;98563.53;5034539;28;19924;-81
2023/03/07 09:38:44;;;;;;;;;;;;;;;9.58;100.00;98551.72;5047401;28;19921;-82
2023/03/07 09:41:19;;;;;;;;;;;;;;;9.61;100.00;98568.03;5019809;28;19960;-82
2023/03/07 09:43:56;;;;;;;;;;;;;;;9.64;100.00;98548.44;5054605;28;19982;-84
2023/03/07 09:47:03;;;;;;;;;;;;;;;9.79;100.00;98554.72;5030602;28;19929;-84
2023/03/07 09:49:33;;;;;;;;;;;;;;;9.92;100.00;98560.34;5048529;28;19925;-84
2023/03/07 09:51:59;;;;;;;;;;;;;;;9.94;100.00;98554.94;5027433;28;20289;-83
2023/03/07 09:54:27;;;;;;;;;;;;;;;10.08;100.00;98549.81;5048667;28;20277;-84
2023/03/07 09:56:56;;;;;;;;;;;;;;;10.07;100.00;98542.91;5043657;28;19921;-84
2023/03/07 09:59:27;;;;;;;;;;;;;;;10.08;100.00;98549.00;5039412;28;19928;-84
2023/03/07 10:02:02;;;;;;;;;;;;;;;10.03;100.00;98548.66;5045262;28;20361;-84
2023/03/07 10:04:32;;;;;;;;;;;;;;;10.11;100.00;98546.88;5040860;28;19932;-83
2023/03/07 10:06:58;;;;;;;;;;;;;;;10.14;100.00;98538.63;5042664;28;20366;-84
2023/03/07 10:09:25;;;;;;;;;;;;;;;10.21;100.00;98533.56;5046443;28;19921;-84
2023/03/07 10:11:53;;;;;;;;;;;;;;;10.23;100.00;98521.88;5041548;28;19925;-85
2023/03/07 10:14:18;;;;;;;;;;;;;;;10.27;100.00;98523.16;5051281;28;20354;-84
2023/03/07 10:17:06;;;;;;;;;;;;;;;10.37;100.00;98522.19;5033500;28;20368;-84
2023/03/07 10:19:49;;;;;;;;;;;;;;;10.49;100.00;98510.28;5050212;28;19992;-83
2023/03/07 10:22:28;;;;;;;;;;;;;;;10.61;100.00;98508.94;5045414;28;19925;-83
2023/03/07 10:24:53;;;;;;;;;;;;;;;10.74;100.00;98506.59;5024855;28;19920;-84
2023/03/07 10:27:22;;;;;;;;;;;;;;;10.87;100.00;98498.97;5041132;28;19928;-83
2023/03/07 10:29:49;;;;;;;;;;;;;;;11.00;100.00;98499.28;5043013;28;19921;-82
2023/03/07 10:32:21;;;;;;;;;;;;;;;11.06;100.00;98498.59;5048115;28;19934;-83
2023/03/07 10:34:56;;;;;;;;;;;;;;;11.18;100.00;98490.28;5028594;28;20392;-84
2023/03/07 10:37:27;;;;;;;;;;;;;;;11.25;100.00;98493.88;5047623;28;20396;-84
2023/03/07 10:39:54;;;;;;;;;;;;;;;11.26;100.00;98498.16;5043072;28;19921;-84
2023/03/07 10:42:24;;;;;;;;;;;;;;;11.37;100.00;98497.75;5050048;28;19920;-84
2023/03/07 10:44:49;;;;;;;;;;;;;;;11.51;100.00;98504.97;5048751;28;19920;-83
2023/03/07 10:47:20;;;;;;;;;;;;;;;11.47;100.00;98501.03;5044905;28;19932;-83
2023/03/07 10:49:46;;;;;;;;;;;;;;;11.60;100.00;98490.72;5052798;28;19983;-83
2023/03/07 10:52:18;;;;;;;;;;;;;;;11.66;100.00;98478.63;5033200;28;20293;-81
2023/03/07 10:54:44;;;;;;;;;;;;;;;11.82;100.00;98474.06;5054682;28;19943;-82
2023/03/07 10:57:11;;;;;;;;;;;;;;;12.00;100.00;98467.66;5056291;28;20717;-82
2023/03/07 10:59:38;;;;;;;;;;;;;;;12.13;100.00;98459.94;5048795;28;19931;-82
2023/03/07 11:02:23;;;;;;;;;;;;;;;12.26;100.00;98463.59;5043795;28;19928;-82
2023/03/07 11:04:49;;;;;;;;;;;;;;;12.31;100.00;98468.38;5042069;28;20353;-79
2023/03/07 11:07:27;;;;;;;;;;;;;;;12.37;100.00;98477.41;5043002;28;19925;-81
2023/03/07 11:09:53;;;;;;;;;;;;;;;12.45;100.00;98470.19;5052137;28;19937;-81
2023/03/07 11:12:19;;;;;;;;;;;;;;;12.55;100.00;98476.03;5034357;28;20035;-82
2023/03/07 11:14:49;;;;;;;;;;;;;;;12.41;100.00;98468.09;5049100;28;19939;-83
2023/03/07 11:17:22;;;;;;;;;;;;;;;12.29;100.00;98468.53;5048511;28;20030;-83
2023/03/07 11:19:51;;;;;;;;;;;;;;;12.34;100.00;98468.00;5029880;28;19927;-82
2023/03/07 11:22:34;;;;;;;;;;;;;;;12.49;100.00;98454.78;5033570;28;20011;-82
2023/03/07 11:25:00;;;;;;;;;;;;;;;12.49;100.00;98455.59;5051704;28;19921;-81
2023/03/07 11:27:45;;;;;;;;;;;;;;;12.53;100.00;98450.78;5043815;28;20345;-83
2023/03/07 11:30:17;;;;;;;;;;;;;;;12.49;100.00;98450.31;5043384;28;20017;-82
2023/03/07 11:32:50;;;;;;;;;;;;;;;12.43;100.00;98450.22;5048970;28;19986;-83
2023/03/07 11:35:21;;;;;;;;;;;;;;;12.41;100.00;98445.13;5032528;28;19929;-82
2023/03/07 11:37:46;;;;;;;;;;;;;;;12.53;100.00;98441.03;5048132;28;19921;-82
2023/03/07 11:40:14;;;;;;;;;;;;;;;12.66;100.00;98449.13;5048882;28;19928;-83
2023/03/07 11:42:43;;;;;;;;;;;;;;;12.67;100.00;98469.28;5042649;28;19925;-83
2023/03/07 11:45:11;;;;;;;;;;;;;;;12.63;100.00;98473.31;5021811;28;19979;-84
2023/03/07 11:47:44;;;;;;;;;;;;;;;12.68;100.00;98465.66;5039896;28;19972;-80
2023/03/07 11:50:23;;;;;;;;;;;;;;;12.71;100.00;98470.59;5047099;28;19928;-81
2023/03/07 11:52:52;;;;;;;;;;;;;;;12.81;100.00;98469.47;5042664;28;19921;-82
2023/03/07 11:55:20;;;;;;;;;;;;;;;12.88;100.00;98450.03;5047677;28;19987;-82
2023/03/07 11:57:52;;;;;;;;;;;;;;;12.89;100.00;98445.56;5046845;28;19990;-81
2023/03/07 12:00:24;;;;;;;;;;;;;;;12.90;100.00;98441.91;5045133;28;19925;-80
2023/03/07 12:02:56;;;;;;;;;;;;;;;12.98;100.00;98428.56;5032799;28;19933;-80
2023/03/07 12:05:51;;;;;;;;;;;;;;;13.11;100.00;98426.06;5040836;28;20011;-80
2023/03/07 12:08:31;;;;;;;;;;;;;;;13.24;98.93;98415.69;5007608;28;19921;-80
2023/03/07 12:11:15;;;;;;;;;;;;;;;13.33;98.15;98417.19;5039973;28;19921;-81
2023/03/07 12:13:58;;;;;;;;;;;;;;;13.35;98.44;98415.19;5034002;28;19931;-82
2023/03/07 12:16:29;;;;;;;;;;;;;;;13.34;98.27;98400.28;4996465;28;19929;-78
2023/03/07 12:19:13;;;;;;;;;;;;;;;13.31;98.25;98398.00;5039979;28;20373;-80
2023/03/07 12:21:39;;;;;;;;;;;;;;;13.51;97.38;98382.31;5034980;28;19952;-79
2023/03/07 12:24:18;;;;;;;;;;;;;;;13.72;97.66;98384.97;5039638;28;19960;-84
2023/03/07 12:26:54;;;;;;;;;;;;;;;13.90;96.87;98384.50;5039492;28;19925;-84
2023/03/07 12:29:50;;;;;;;;;;;;;;;13.88;95.20;98389.16;5043957;28;20165;-82
2023/03/07 12:32:19;;;;;;;;;;;;;;;13.88;95.63;98386.50;5023500;28;19921;-81
2023/03/07 12:35:08;;;;;;;;;;;;;;;13.93;96.08;98392.03;5046711;28;20447;-82
2023/03/07 12:37:40;;;;;;;;;;;;;;;13.86;95.25;98388.50;5045720;28;20381;-81
2023/03/07 12:40:20;;;;;;;;;;;;;;;13.90;96.45;98387.16;5036604;28;20341;-82
2023/03/07 12:42:59;;;;;;;;;;;;;;;13.83;98.02;98373.81;5038485;28;19928;-84
2023/03/07 12:45:30;;;;;;;;;;;;;;;13.83;98.93;98365.06;5028257;28;19925;-84
2023/03/07 12:48:00;;;;;;;;;;;;;;;13.77;98.33;98371.13;5020893;28;19957;-83
2023/03/07 12:50:27;;;;;;;;;;;;;;;13.75;99.48;98363.34;5040115;28;19932;-84